Terminal Aerodrome Forecast
Issued by NWS Hastings, NE

Home | Current Version | Previous Version | Text Only | Print | Product List | Glossary On
Versions: 1 2 3 4 5 6 7 8 9 10 11 12 13 14
000
FTUS45 KGID 211720
TAFEAR
TAF
KEAR 211720Z 2118/2218 16018G25KT P6SM SKC
     FM220400 17015G23KT P6SM FEW250 WS010/19045KT
     FM221300 19019G27KT P6SM FEW200=

USA.gov is the U.S. government's official web portal to all federal, state and local government web resources and services.